sensor_id;sensor_type;location;lat;lon;timestamp;P1;durP1;ratioP1;P2;durP2;ratioP2
17461;SDS011;8848;50.810;4.790;2022-07-30T00:02:16;1.80;;;1.30;;
17461;SDS011;8848;50.810;4.790;2022-07-30T00:04:43;2.75;;;1.30;;
17461;SDS011;8848;50.810;4.790;2022-07-30T00:07:09;1.20;;;1.10;;
17461;SDS011;8848;50.810;4.790;2022-07-30T00:09:35;1.40;;;1.30;;
17461;SDS011;8848;50.810;4.790;2022-07-30T00:12:01;2.08;;;1.38;;
17461;SDS011;8848;50.810;4.790;2022-07-30T00:14:27;1.40;;;1.30;;
17461;SDS011;8848;50.810;4.790;2022-07-30T00:16:53;1.67;;;1.40;;
17461;SDS011;8848;50.810;4.790;2022-07-30T00:19:19;1.48;;;1.33;;
17461;SDS011;8848;50.810;4.790;2022-07-30T00:21:45;1.52;;;1.30;;
17461;SDS011;8848;50.810;4.790;2022-07-30T00:24:11;1.48;;;1.30;;
17461;SDS011;8848;50.810;4.790;2022-07-30T00:26:37;1.67;;;1.30;;
17461;SDS011;8848;50.810;4.790;2022-07-30T00:29:04;1.25;;;1.15;;
17461;SDS011;8848;50.810;4.790;2022-07-30T00:31:30;1.30;;;1.20;;
17461;SDS011;8848;50.810;4.790;2022-07-30T00:33:57;1.17;;;1.13;;
17461;SDS011;8848;50.810;4.790;2022-07-30T00:36:23;1.88;;;1.10;;
17461;SDS011;8848;50.810;4.790;2022-07-30T00:38:49;1.48;;;1.20;;
17461;SDS011;8848;50.810;4.790;2022-07-30T00:41:15;2.55;;;1.30;;
17461;SDS011;8848;50.810;4.790;2022-07-30T00:43:41;1.30;;;1.20;;
17461;SDS011;8848;50.810;4.790;2022-07-30T00:46:07;2.08;;;1.50;;
17461;SDS011;8848;50.810;4.790;2022-07-30T00:48:33;1.50;;;1.23;;
17461;SDS011;8848;50.810;4.790;2022-07-30T00:51:00;2.25;;;1.58;;
17461;SDS011;8848;50.810;4.790;2022-07-30T00:53:26;2.40;;;1.40;;
17461;SDS011;8848;50.810;4.790;2022-07-30T00:55:52;1.60;;;1.30;;
17461;SDS011;8848;50.810;4.790;2022-07-30T00:58:18;2.22;;;1.63;;
17461;SDS011;8848;50.810;4.790;2022-07-30T01:00:44;2.00;;;1.58;;
17461;SDS011;8848;50.810;4.790;2022-07-30T01:03:10;1.30;;;1.20;;
17461;SDS011;8848;50.810;4.790;2022-07-30T01:05:36;1.90;;;1.60;;
17461;SDS011;8848;50.810;4.790;2022-07-30T01:08:02;2.40;;;1.67;;
17461;SDS011;8848;50.810;4.790;2022-07-30T01:10:28;1.27;;;1.17;;
17461;SDS011;8848;50.810;4.790;2022-07-30T01:12:54;1.60;;;1.50;;
17461;SDS011;8848;50.810;4.790;2022-07-30T01:15:23;1.70;;;1.60;;
17461;SDS011;8848;50.810;4.790;2022-07-30T01:17:49;1.50;;;1.40;;
17461;SDS011;8848;50.810;4.790;2022-07-30T01:20:16;1.48;;;1.33;;
17461;SDS011;8848;50.810;4.790;2022-07-30T01:22:49;1.75;;;1.65;;
17461;SDS011;8848;50.810;4.790;2022-07-30T01:28:02;2.05;;;1.65;;
17461;SDS011;8848;50.810;4.790;2022-07-30T01:30:30;3.42;;;1.63;;
17461;SDS011;8848;50.810;4.790;2022-07-30T01:32:57;1.73;;;1.38;;
17461;SDS011;8848;50.810;4.790;2022-07-30T01:35:25;2.13;;;1.75;;
17461;SDS011;8848;50.810;4.790;2022-07-30T01:37:52;2.42;;;1.67;;
17461;SDS011;8848;50.810;4.790;2022-07-30T01:40:19;1.40;;;1.30;;
17461;SDS011;8848;50.810;4.790;2022-07-30T01:42:46;2.55;;;1.73;;
17461;SDS011;8848;50.810;4.790;2022-07-30T01:45:13;1.58;;;1.40;;
17461;SDS011;8848;50.810;4.790;2022-07-30T01:47:40;1.55;;;1.45;;
17461;SDS011;8848;50.810;4.790;2022-07-30T01:50:08;4.13;;;1.85;;
17461;SDS011;8848;50.810;4.790;2022-07-30T01:52:37;2.08;;;1.75;;
17461;SDS011;8848;50.810;4.790;2022-07-30T01:55:05;2.65;;;1.60;;
17461;SDS011;8848;50.810;4.790;2022-07-30T01:57:31;1.77;;;1.20;;
17461;SDS011;8848;50.810;4.790;2022-07-30T02:00:01;1.75;;;1.40;;
17461;SDS011;8848;50.810;4.790;2022-07-30T02:02:28;1.70;;;1.58;;
17461;SDS011;8848;50.810;4.790;2022-07-30T02:04:54;1.85;;;1.50;;
17461;SDS011;8848;50.810;4.790;2022-07-30T02:07:24;2.40;;;1.98;;
17461;SDS011;8848;50.810;4.790;2022-07-30T02:10:00;2.00;;;1.42;;
17461;SDS011;8848;50.810;4.790;2022-07-30T02:12:26;1.75;;;1.40;;
17461;SDS011;8848;50.810;4.790;2022-07-30T02:17:37;2.22;;;1.80;;
17461;SDS011;8848;50.810;4.790;2022-07-30T02:20:04;2.10;;;1.88;;
17461;SDS011;8848;50.810;4.790;2022-07-30T02:22:32;1.58;;;1.40;;
17461;SDS011;8848;50.810;4.790;2022-07-30T02:25:02;1.58;;;1.48;;
17461;SDS011;8848;50.810;4.790;2022-07-30T02:27:31;2.00;;;1.60;;
17461;SDS011;8848;50.810;4.790;2022-07-30T02:29:58;1.75;;;1.40;;
17461;SDS011;8848;50.810;4.790;2022-07-30T02:32:25;1.45;;;1.35;;
17461;SDS011;8848;50.810;4.790;2022-07-30T02:34:53;1.90;;;1.60;;
17461;SDS011;8848;50.810;4.790;2022-07-30T02:37:20;1.67;;;1.48;;
17461;SDS011;8848;50.810;4.790;2022-07-30T02:39:48;2.35;;;1.38;;
17461;SDS011;8848;50.810;4.790;2022-07-30T02:42:15;2.15;;;1.60;;
17461;SDS011;8848;50.810;4.790;2022-07-30T02:44:42;1.75;;;1.63;;
17461;SDS011;8848;50.810;4.790;2022-07-30T02:47:10;1.35;;;1.25;;
17461;SDS011;8848;50.810;4.790;2022-07-30T02:49:37;2.33;;;1.85;;
17461;SDS011;8848;50.810;4.790;2022-07-30T02:52:05;2.60;;;1.60;;
17461;SDS011;8848;50.810;4.790;2022-07-30T02:54:32;2.08;;;1.70;;
17461;SDS011;8848;50.810;4.790;2022-07-30T02:56:59;2.58;;;1.80;;
17461;SDS011;8848;50.810;4.790;2022-07-30T02:59:26;1.98;;;1.77;;
17461;SDS011;8848;50.810;4.790;2022-07-30T03:01:53;1.40;;;1.30;;
17461;SDS011;8848;50.810;4.790;2022-07-30T03:04:19;1.60;;;1.50;;
17461;SDS011;8848;50.810;4.790;2022-07-30T03:06:46;2.88;;;1.85;;
17461;SDS011;8848;50.810;4.790;2022-07-30T03:09:13;1.40;;;1.30;;
17461;SDS011;8848;50.810;4.790;2022-07-30T03:11:39;2.78;;;1.70;;
17461;SDS011;8848;50.810;4.790;2022-07-30T03:14:06;1.30;;;1.20;;
17461;SDS011;8848;50.810;4.790;2022-07-30T03:16:33;1.80;;;1.40;;
17461;SDS011;8848;50.810;4.790;2022-07-30T03:19:01;1.42;;;1.30;;
17461;SDS011;8848;50.810;4.790;2022-07-30T03:21:28;1.35;;;1.20;;
17461;SDS011;8848;50.810;4.790;2022-07-30T03:23:56;1.92;;;1.55;;
17461;SDS011;8848;50.810;4.790;2022-07-30T03:26:23;1.52;;;1.23;;
17461;SDS011;8848;50.810;4.790;2022-07-30T03:28:49;1.55;;;1.35;;
17461;SDS011;8848;50.810;4.790;2022-07-30T03:31:15;1.70;;;1.30;;
17461;SDS011;8848;50.810;4.790;2022-07-30T03:33:42;1.20;;;1.10;;
17461;SDS011;8848;50.810;4.790;2022-07-30T03:36:09;1.90;;;1.50;;
17461;SDS011;8848;50.810;4.790;2022-07-30T03:38:37;1.55;;;1.38;;
17461;SDS011;8848;50.810;4.790;2022-07-30T03:41:04;2.03;;;1.42;;
17461;SDS011;8848;50.810;4.790;2022-07-30T03:43:31;1.40;;;1.30;;
17461;SDS011;8848;50.810;4.790;2022-07-30T03:45:57;1.40;;;1.30;;
17461;SDS011;8848;50.810;4.790;2022-07-30T03:48:23;1.30;;;1.20;;
17461;SDS011;8848;50.810;4.790;2022-07-30T03:50:50;1.30;;;1.13;;
17461;SDS011;8848;50.810;4.790;2022-07-30T03:53:16;1.45;;;1.33;;
17461;SDS011;8848;50.810;4.790;2022-07-30T03:55:43;2.00;;;1.40;;
17461;SDS011;8848;50.810;4.790;2022-07-30T03:58:10;3.00;;;1.40;;
17461;SDS011;8848;50.810;4.790;2022-07-30T04:00:37;1.60;;;1.50;;
17461;SDS011;8848;50.810;4.790;2022-07-30T04:03:03;1.50;;;1.35;;
17461;SDS011;8848;50.810;4.790;2022-07-30T04:05:30;2.15;;;1.40;;
17461;SDS011;8848;50.810;4.790;2022-07-30T04:07:56;1.30;;;1.20;;
17461;SDS011;8848;50.810;4.790;2022-07-30T04:10:22;1.50;;;1.40;;
17461;SDS011;8848;50.810;4.790;2022-07-30T04:12:48;1.17;;;1.08;;
17461;SDS011;8848;50.810;4.790;2022-07-30T04:15:14;1.30;;;1.20;;
17461;SDS011;8848;50.810;4.790;2022-07-30T04:17:42;1.30;;;1.20;;
17461;SDS011;8848;50.810;4.790;2022-07-30T04:20:09;1.67;;;1.50;;
17461;SDS011;8848;50.810;4.790;2022-07-30T04:22:37;1.95;;;1.25;;
17461;SDS011;8848;50.810;4.790;2022-07-30T04:25:04;1.33;;;1.08;;
17461;SDS011;8848;50.810;4.790;2022-07-30T04:27:30;1.50;;;1.15;;
17461;SDS011;8848;50.810;4.790;2022-07-30T04:29:57;1.33;;;1.17;;
17461;SDS011;8848;50.810;4.790;2022-07-30T04:32:23;1.38;;;1.27;;
17461;SDS011;8848;50.810;4.790;2022-07-30T04:34:50;2.00;;;1.60;;
17461;SDS011;8848;50.810;4.790;2022-07-30T04:37:17;1.42;;;1.33;;
17461;SDS011;8848;50.810;4.790;2022-07-30T04:39:43;1.65;;;1.40;;
17461;SDS011;8848;50.810;4.790;2022-07-30T04:42:09;1.42;;;1.33;;
17461;SDS011;8848;50.810;4.790;2022-07-30T04:44:35;1.45;;;1.20;;
17461;SDS011;8848;50.810;4.790;2022-07-30T04:47:02;2.17;;;1.02;;
17461;SDS011;8848;50.810;4.790;2022-07-30T04:49:28;1.20;;;1.10;;
17461;SDS011;8848;50.810;4.790;2022-07-30T04:51:54;1.38;;;0.95;;
17461;SDS011;8848;50.810;4.790;2022-07-30T04:54:21;1.45;;;1.35;;
17461;SDS011;8848;50.810;4.790;2022-07-30T04:56:49;1.50;;;1.33;;
17461;SDS011;8848;50.810;4.790;2022-07-30T04:59:16;1.85;;;1.20;;
17461;SDS011;8848;50.810;4.790;2022-07-30T05:01:43;1.52;;;1.15;;
17461;SDS011;8848;50.810;4.790;2022-07-30T05:04:10;1.45;;;1.35;;
17461;SDS011;8848;50.810;4.790;2022-07-30T05:06:37;1.50;;;1.35;;
17461;SDS011;8848;50.810;4.790;2022-07-30T05:09:03;1.33;;;1.20;;
17461;SDS011;8848;50.810;4.790;2022-07-30T05:11:30;1.42;;;1.05;;
17461;SDS011;8848;50.810;4.790;2022-07-30T05:13:56;1.30;;;1.13;;
17461;SDS011;8848;50.810;4.790;2022-07-30T05:16:22;1.50;;;1.40;;
17461;SDS011;8848;50.810;4.790;2022-07-30T05:18:48;1.63;;;1.10;;
17461;SDS011;8848;50.810;4.790;2022-07-30T05:21:15;1.90;;;1.50;;
17461;SDS011;8848;50.810;4.790;2022-07-30T05:23:41;1.30;;;1.20;;
17461;SDS011;8848;50.810;4.790;2022-07-30T05:26:07;1.60;;;1.50;;
17461;SDS011;8848;50.810;4.790;2022-07-30T05:28:33;1.45;;;1.35;;
17461;SDS011;8848;50.810;4.790;2022-07-30T05:30:59;1.45;;;1.30;;
17461;SDS011;8848;50.810;4.790;2022-07-30T05:33:25;1.95;;;1.40;;
17461;SDS011;8848;50.810;4.790;2022-07-30T05:35:51;1.67;;;1.42;;
17461;SDS011;8848;50.810;4.790;2022-07-30T05:38:17;1.88;;;1.45;;
17461;SDS011;8848;50.810;4.790;2022-07-30T05:40:43;1.23;;;1.13;;
17461;SDS011;8848;50.810;4.790;2022-07-30T05:43:10;2.20;;;1.30;;
17461;SDS011;8848;50.810;4.790;2022-07-30T05:45:36;2.50;;;1.50;;
17461;SDS011;8848;50.810;4.790;2022-07-30T05:48:03;1.50;;;1.40;;
17461;SDS011;8848;50.810;4.790;2022-07-30T05:50:29;1.95;;;1.40;;
17461;SDS011;8848;50.810;4.790;2022-07-30T05:52:55;1.50;;;1.40;;
17461;SDS011;8848;50.810;4.790;2022-07-30T05:55:22;1.60;;;1.40;;
17461;SDS011;8848;50.810;4.790;2022-07-30T05:57:48;1.83;;;1.40;;
17461;SDS011;8848;50.810;4.790;2022-07-30T06:00:14;2.15;;;1.92;;
17461;SDS011;8848;50.810;4.790;2022-07-30T06:02:40;1.65;;;1.40;;
17461;SDS011;8848;50.810;4.790;2022-07-30T06:05:06;2.22;;;1.60;;
17461;SDS011;8848;50.810;4.790;2022-07-30T06:07:33;2.00;;;1.77;;
17461;SDS011;8848;50.810;4.790;2022-07-30T06:09:59;1.63;;;1.45;;
17461;SDS011;8848;50.810;4.790;2022-07-30T06:12:29;1.50;;;1.15;;
17461;SDS011;8848;50.810;4.790;2022-07-30T06:14:55;1.98;;;1.50;;
17461;SDS011;8848;50.810;4.790;2022-07-30T06:17:21;2.15;;;1.73;;
17461;SDS011;8848;50.810;4.790;2022-07-30T06:19:47;1.70;;;1.52;;
17461;SDS011;8848;50.810;4.790;2022-07-30T06:22:15;1.52;;;1.35;;
17461;SDS011;8848;50.810;4.790;2022-07-30T06:24:41;1.83;;;1.73;;
17461;SDS011;8848;50.810;4.790;2022-07-30T06:27:07;1.77;;;1.40;;
17461;SDS011;8848;50.810;4.790;2022-07-30T06:29:33;2.30;;;1.30;;
17461;SDS011;8848;50.810;4.790;2022-07-30T06:31:59;1.60;;;1.50;;
17461;SDS011;8848;50.810;4.790;2022-07-30T06:34:25;1.60;;;1.50;;
17461;SDS011;8848;50.810;4.790;2022-07-30T06:36:51;1.50;;;1.40;;
17461;SDS011;8848;50.810;4.790;2022-07-30T06:39:17;1.75;;;1.25;;
17461;SDS011;8848;50.810;4.790;2022-07-30T06:41:43;1.35;;;1.10;;
17461;SDS011;8848;50.810;4.790;2022-07-30T06:44:10;1.27;;;1.10;;
17461;SDS011;8848;50.810;4.790;2022-07-30T06:46:36;1.33;;;1.15;;
17461;SDS011;8848;50.810;4.790;2022-07-30T06:49:02;1.35;;;1.13;;
17461;SDS011;8848;50.810;4.790;2022-07-30T06:51:28;1.20;;;1.10;;
17461;SDS011;8848;50.810;4.790;2022-07-30T06:53:54;1.42;;;1.30;;
17461;SDS011;8848;50.810;4.790;2022-07-30T06:56:20;1.15;;;1.05;;
17461;SDS011;8848;50.810;4.790;2022-07-30T06:58:46;1.42;;;1.13;;
17461;SDS011;8848;50.810;4.790;2022-07-30T07:01:12;1.73;;;1.63;;
17461;SDS011;8848;50.810;4.790;2022-07-30T07:03:38;1.60;;;1.33;;
17461;SDS011;8848;50.810;4.790;2022-07-30T07:06:04;0.95;;;0.90;;
17461;SDS011;8848;50.810;4.790;2022-07-30T07:08:30;2.30;;;1.52;;
17461;SDS011;8848;50.810;4.790;2022-07-30T07:10:56;1.95;;;1.42;;
17461;SDS011;8848;50.810;4.790;2022-07-30T07:13:22;2.20;;;1.80;;
17461;SDS011;8848;50.810;4.790;2022-07-30T07:15:48;2.08;;;1.58;;
17461;SDS011;8848;50.810;4.790;2022-07-30T07:18:14;1.88;;;1.70;;
17461;SDS011;8848;50.810;4.790;2022-07-30T07:20:40;2.35;;;1.80;;
17461;SDS011;8848;50.810;4.790;2022-07-30T07:23:07;2.05;;;1.70;;
17461;SDS011;8848;50.810;4.790;2022-07-30T07:25:33;1.70;;;1.60;;
17461;SDS011;8848;50.810;4.790;2022-07-30T07:28:00;2.17;;;1.92;;
17461;SDS011;8848;50.810;4.790;2022-07-30T07:30:26;2.00;;;1.80;;
17461;SDS011;8848;50.810;4.790;2022-07-30T07:32:52;1.80;;;1.70;;
17461;SDS011;8848;50.810;4.790;2022-07-30T07:35:18;2.03;;;1.75;;
17461;SDS011;8848;50.810;4.790;2022-07-30T07:37:44;2.10;;;1.70;;
17461;SDS011;8848;50.810;4.790;2022-07-30T07:40:10;2.75;;;1.75;;
17461;SDS011;8848;50.810;4.790;2022-07-30T07:42:37;1.88;;;1.63;;
17461;SDS011;8848;50.810;4.790;2022-07-30T07:45:03;1.83;;;1.73;;
17461;SDS011;8848;50.810;4.790;2022-07-30T07:47:29;2.35;;;1.92;;
17461;SDS011;8848;50.810;4.790;2022-07-30T07:49:55;2.10;;;1.90;;
17461;SDS011;8848;50.810;4.790;2022-07-30T07:52:21;1.95;;;1.70;;
17461;SDS011;8848;50.810;4.790;2022-07-30T07:54:47;2.10;;;1.80;;
17461;SDS011;8848;50.810;4.790;2022-07-30T07:57:13;1.80;;;1.70;;
17461;SDS011;8848;50.810;4.790;2022-07-30T07:59:39;1.60;;;1.50;;
17461;SDS011;8848;50.810;4.790;2022-07-30T08:02:05;2.25;;;2.05;;
17461;SDS011;8848;50.810;4.790;2022-07-30T08:04:31;1.67;;;1.58;;
17461;SDS011;8848;50.810;4.790;2022-07-30T08:06:57;1.55;;;1.42;;
17461;SDS011;8848;50.810;4.790;2022-07-30T08:09:23;1.77;;;1.25;;
17461;SDS011;8848;50.810;4.790;2022-07-30T08:11:49;1.65;;;1.50;;
17461;SDS011;8848;50.810;4.790;2022-07-30T08:14:15;1.85;;;1.73;;
17461;SDS011;8848;50.810;4.790;2022-07-30T08:16:41;1.98;;;1.40;;
17461;SDS011;8848;50.810;4.790;2022-07-30T08:19:07;1.63;;;1.33;;
17461;SDS011;8848;50.810;4.790;2022-07-30T08:21:33;2.45;;;1.65;;
17461;SDS011;8848;50.810;4.790;2022-07-30T08:23:59;1.73;;;1.60;;
17461;SDS011;8848;50.810;4.790;2022-07-30T08:26:25;2.25;;;1.65;;
17461;SDS011;8848;50.810;4.790;2022-07-30T08:28:51;1.85;;;1.45;;
17461;SDS011;8848;50.810;4.790;2022-07-30T08:31:17;2.58;;;1.50;;
17461;SDS011;8848;50.810;4.790;2022-07-30T08:33:43;2.05;;;1.63;;
17461;SDS011;8848;50.810;4.790;2022-07-30T08:36:09;1.40;;;1.30;;
17461;SDS011;8848;50.810;4.790;2022-07-30T08:38:36;1.60;;;1.35;;
17461;SDS011;8848;50.810;4.790;2022-07-30T08:41:02;1.50;;;1.35;;
17461;SDS011;8848;50.810;4.790;2022-07-30T08:43:28;2.17;;;1.50;;
17461;SDS011;8848;50.810;4.790;2022-07-30T08:45:55;1.73;;;1.50;;
17461;SDS011;8848;50.810;4.790;2022-07-30T08:48:21;1.48;;;1.38;;
17461;SDS011;8848;50.810;4.790;2022-07-30T08:50:48;1.30;;;1.20;;
17461;SDS011;8848;50.810;4.790;2022-07-30T08:53:14;2.05;;;1.40;;
17461;SDS011;8848;50.810;4.790;2022-07-30T08:55:42;2.08;;;1.20;;
17461;SDS011;8848;50.810;4.790;2022-07-30T08:58:19;1.70;;;1.45;;
17461;SDS011;8848;50.810;4.790;2022-07-30T09:00:48;1.77;;;1.52;;
17461;SDS011;8848;50.810;4.790;2022-07-30T09:03:14;2.22;;;1.50;;
17461;SDS011;8848;50.810;4.790;2022-07-30T09:05:40;1.30;;;1.20;;
17461;SDS011;8848;50.810;4.790;2022-07-30T09:08:06;2.05;;;1.55;;
17461;SDS011;8848;50.810;4.790;2022-07-30T09:10:32;1.98;;;1.20;;
17461;SDS011;8848;50.810;4.790;2022-07-30T09:12:58;1.83;;;1.30;;
17461;SDS011;8848;50.810;4.790;2022-07-30T09:15:25;1.98;;;1.33;;
17461;SDS011;8848;50.810;4.790;2022-07-30T09:20:19;1.42;;;1.15;;
17461;SDS011;8848;50.810;4.790;2022-07-30T09:22:49;1.33;;;1.23;;
17461;SDS011;8848;50.810;4.790;2022-07-30T09:25:21;1.88;;;1.45;;
17461;SDS011;8848;50.810;4.790;2022-07-30T09:27:57;1.48;;;1.38;;
17461;SDS011;8848;50.810;4.790;2022-07-30T09:30:23;3.70;;;2.42;;
17461;SDS011;8848;50.810;4.790;2022-07-30T09:32:50;6.00;;;2.63;;
17461;SDS011;8848;50.810;4.790;2022-07-30T09:35:16;4.35;;;2.10;;
17461;SDS011;8848;50.810;4.790;2022-07-30T09:37:43;4.45;;;2.22;;
17461;SDS011;8848;50.810;4.790;2022-07-30T09:40:10;3.83;;;2.33;;
17461;SDS011;8848;50.810;4.790;2022-07-30T09:42:36;2.97;;;1.98;;
17461;SDS011;8848;50.810;4.790;2022-07-30T09:45:04;2.83;;;2.10;;
17461;SDS011;8848;50.810;4.790;2022-07-30T09:47:31;6.65;;;2.00;;
17461;SDS011;8848;50.810;4.790;2022-07-30T09:52:53;4.55;;;2.17;;
17461;SDS011;8848;50.810;4.790;2022-07-30T09:55:29;4.72;;;2.17;;
17461;SDS011;8848;50.810;4.790;2022-07-30T09:57:59;4.47;;;2.13;;
17461;SDS011;8848;50.810;4.790;2022-07-30T10:00:26;3.20;;;1.90;;
17461;SDS011;8848;50.810;4.790;2022-07-30T10:02:52;3.50;;;2.25;;
17461;SDS011;8848;50.810;4.790;2022-07-30T10:05:19;3.20;;;2.00;;
17461;SDS011;8848;50.810;4.790;2022-07-30T10:10:15;3.70;;;2.10;;
17461;SDS011;8848;50.810;4.790;2022-07-30T10:12:41;4.47;;;2.15;;
17461;SDS011;8848;50.810;4.790;2022-07-30T10:15:08;3.97;;;2.20;;
17461;SDS011;8848;50.810;4.790;2022-07-30T10:17:34;3.55;;;2.10;;
17461;SDS011;8848;50.810;4.790;2022-07-30T10:20:03;4.18;;;2.05;;
17461;SDS011;8848;50.810;4.790;2022-07-30T10:22:29;3.97;;;2.08;;
17461;SDS011;8848;50.810;4.790;2022-07-30T10:24:55;4.30;;;1.90;;
17461;SDS011;8848;50.810;4.790;2022-07-30T10:27:22;3.78;;;2.10;;
17461;SDS011;8848;50.810;4.790;2022-07-30T10:29:48;2.33;;;1.55;;
17461;SDS011;8848;50.810;4.790;2022-07-30T10:32:15;1.83;;;1.50;;
17461;SDS011;8848;50.810;4.790;2022-07-30T10:34:41;2.58;;;1.60;;
17461;SDS011;8848;50.810;4.790;2022-07-30T10:37:07;5.32;;;1.60;;
17461;SDS011;8848;50.810;4.790;2022-07-30T10:39:38;2.58;;;1.40;;
17461;SDS011;8848;50.810;4.790;2022-07-30T10:42:15;6.28;;;1.83;;
17461;SDS011;8848;50.810;4.790;2022-07-30T10:47:30;2.92;;;1.88;;
17461;SDS011;8848;50.810;4.790;2022-07-30T10:50:10;4.80;;;1.83;;
17461;SDS011;8848;50.810;4.790;2022-07-30T10:52:47;3.08;;;1.45;;
17461;SDS011;8848;50.810;4.790;2022-07-30T10:55:24;2.35;;;1.45;;
17461;SDS011;8848;50.810;4.790;2022-07-30T11:00:57;2.10;;;1.77;;
17461;SDS011;8848;50.810;4.790;2022-07-30T11:03:23;2.75;;;1.55;;
17461;SDS011;8848;50.810;4.790;2022-07-30T11:05:50;3.13;;;1.58;;
17461;SDS011;8848;50.810;4.790;2022-07-30T11:10:55;3.90;;;1.90;;
17461;SDS011;8848;50.810;4.790;2022-07-30T11:16:06;2.80;;;1.65;;
17461;SDS011;8848;50.810;4.790;2022-07-30T11:18:32;3.33;;;1.45;;
17461;SDS011;8848;50.810;4.790;2022-07-30T11:21:18;2.92;;;1.73;;
17461;SDS011;8848;50.810;4.790;2022-07-30T11:23:45;2.30;;;1.48;;
17461;SDS011;8848;50.810;4.790;2022-07-30T11:28:56;3.92;;;1.50;;
17461;SDS011;8848;50.810;4.790;2022-07-30T11:31:33;1.40;;;1.25;;
17461;SDS011;8848;50.810;4.790;2022-07-30T11:40:25;2.72;;;1.55;;
17461;SDS011;8848;50.810;4.790;2022-07-30T11:42:36;3.05;;;1.27;;
17461;SDS011;8848;50.810;4.790;2022-07-30T11:47:44;3.10;;;1.60;;
17461;SDS011;8848;50.810;4.790;2022-07-30T11:50:21;4.43;;;1.75;;
17461;SDS011;8848;50.810;4.790;2022-07-30T11:52:49;7.78;;;1.73;;
17461;SDS011;8848;50.810;4.790;2022-07-30T11:55:25;2.85;;;1.60;;
17461;SDS011;8848;50.810;4.790;2022-07-30T11:57:52;1.88;;;1.48;;
17461;SDS011;8848;50.810;4.790;2022-07-30T12:00:18;2.45;;;1.40;;
17461;SDS011;8848;50.810;4.790;2022-07-30T12:02:44;1.45;;;1.35;;
17461;SDS011;8848;50.810;4.790;2022-07-30T12:05:11;3.22;;;1.77;;
17461;SDS011;8848;50.810;4.790;2022-07-30T12:07:37;5.20;;;1.60;;
17461;SDS011;8848;50.810;4.790;2022-07-30T12:10:16;2.78;;;1.35;;
17461;SDS011;8848;50.810;4.790;2022-07-30T12:12:43;1.50;;;1.20;;
17461;SDS011;8848;50.810;4.790;2022-07-30T12:15:09;1.95;;;1.40;;
17461;SDS011;8848;50.810;4.790;2022-07-30T12:17:42;2.13;;;1.52;;
17461;SDS011;8848;50.810;4.790;2022-07-30T12:20:17;4.45;;;1.50;;
17461;SDS011;8848;50.810;4.790;2022-07-30T12:22:45;3.17;;;1.50;;
17461;SDS011;8848;50.810;4.790;2022-07-30T12:25:12;3.08;;;1.23;;
17461;SDS011;8848;50.810;4.790;2022-07-30T12:27:38;2.17;;;1.20;;
17461;SDS011;8848;50.810;4.790;2022-07-30T12:30:04;2.08;;;1.50;;
17461;SDS011;8848;50.810;4.790;2022-07-30T12:32:30;2.10;;;1.08;;
17461;SDS011;8848;50.810;4.790;2022-07-30T12:34:57;2.15;;;1.55;;
17461;SDS011;8848;50.810;4.790;2022-07-30T12:37:23;2.35;;;1.52;;
17461;SDS011;8848;50.810;4.790;2022-07-30T12:40:03;1.92;;;1.38;;
17461;SDS011;8848;50.810;4.790;2022-07-30T12:42:29;4.05;;;1.30;;
17461;SDS011;8848;50.810;4.790;2022-07-30T12:44:56;1.38;;;1.10;;
17461;SDS011;8848;50.810;4.790;2022-07-30T12:49:48;2.38;;;1.50;;
17461;SDS011;8848;50.810;4.790;2022-07-30T12:57:26;2.45;;;1.27;;
17461;SDS011;8848;50.810;4.790;2022-07-30T13:00:00;1.98;;;1.20;;
17461;SDS011;8848;50.810;4.790;2022-07-30T13:02:34;2.40;;;1.27;;
17461;SDS011;8848;50.810;4.790;2022-07-30T13:05:00;2.47;;;1.35;;
17461;SDS011;8848;50.810;4.790;2022-07-30T13:07:26;1.63;;;1.20;;
17461;SDS011;8848;50.810;4.790;2022-07-30T13:10:09;1.48;;;1.30;;
17461;SDS011;8848;50.810;4.790;2022-07-30T13:12:35;1.67;;;1.10;;
17461;SDS011;8848;50.810;4.790;2022-07-30T13:15:02;1.50;;;1.40;;
17461;SDS011;8848;50.810;4.790;2022-07-30T13:17:28;1.67;;;1.30;;
17461;SDS011;8848;50.810;4.790;2022-07-30T13:19:54;1.23;;;1.13;;
17461;SDS011;8848;50.810;4.790;2022-07-30T13:22:20;1.13;;;0.98;;
17461;SDS011;8848;50.810;4.790;2022-07-30T13:24:46;2.15;;;1.17;;
17461;SDS011;8848;50.810;4.790;2022-07-30T13:27:12;1.20;;;1.05;;
17461;SDS011;8848;50.810;4.790;2022-07-30T13:29:40;2.72;;;1.30;;
17461;SDS011;8848;50.810;4.790;2022-07-30T13:32:06;1.30;;;1.20;;
17461;SDS011;8848;50.810;4.790;2022-07-30T13:34:32;0.77;;;0.77;;
17461;SDS011;8848;50.810;4.790;2022-07-30T13:36:58;1.60;;;1.17;;
17461;SDS011;8848;50.810;4.790;2022-07-30T13:39:24;1.58;;;1.10;;
17461;SDS011;8848;50.810;4.790;2022-07-30T13:41:50;1.48;;;1.13;;
17461;SDS011;8848;50.810;4.790;2022-07-30T13:44:16;1.33;;;1.10;;
17461;SDS011;8848;50.810;4.790;2022-07-30T13:46:42;1.90;;;1.30;;
17461;SDS011;8848;50.810;4.790;2022-07-30T13:49:08;1.27;;;1.17;;
17461;SDS011;8848;50.810;4.790;2022-07-30T13:51:34;1.90;;;1.30;;
17461;SDS011;8848;50.810;4.790;2022-07-30T13:54:00;1.25;;;1.15;;
17461;SDS011;8848;50.810;4.790;2022-07-30T13:56:27;1.38;;;1.27;;
17461;SDS011;8848;50.810;4.790;2022-07-30T13:58:53;2.88;;;1.23;;
17461;SDS011;8848;50.810;4.790;2022-07-30T14:01:19;1.35;;;1.25;;
17461;SDS011;8848;50.810;4.790;2022-07-30T14:03:45;1.05;;;1.05;;
17461;SDS011;8848;50.810;4.790;2022-07-30T14:06:12;1.65;;;1.13;;
17461;SDS011;8848;50.810;4.790;2022-07-30T14:08:38;1.42;;;1.20;;
17461;SDS011;8848;50.810;4.790;2022-07-30T14:11:04;1.20;;;1.10;;
17461;SDS011;8848;50.810;4.790;2022-07-30T14:13:30;1.38;;;1.27;;
17461;SDS011;8848;50.810;4.790;2022-07-30T14:15:56;1.75;;;1.17;;
17461;SDS011;8848;50.810;4.790;2022-07-30T14:18:22;1.63;;;1.20;;
17461;SDS011;8848;50.810;4.790;2022-07-30T14:20:48;2.35;;;1.15;;
17461;SDS011;8848;50.810;4.790;2022-07-30T14:23:16;1.85;;;1.40;;
17461;SDS011;8848;50.810;4.790;2022-07-30T14:25:42;1.73;;;1.30;;
17461;SDS011;8848;50.810;4.790;2022-07-30T14:28:08;2.53;;;1.30;;
17461;SDS011;8848;50.810;4.790;2022-07-30T14:30:34;1.30;;;1.15;;
17461;SDS011;8848;50.810;4.790;2022-07-30T14:33:01;1.88;;;1.50;;
17461;SDS011;8848;50.810;4.790;2022-07-30T14:35:27;1.15;;;1.05;;
17461;SDS011;8848;50.810;4.790;2022-07-30T14:37:53;1.48;;;1.15;;
17461;SDS011;8848;50.810;4.790;2022-07-30T14:40:19;1.33;;;1.20;;
17461;SDS011;8848;50.810;4.790;2022-07-30T14:42:45;1.30;;;1.20;;
17461;SDS011;8848;50.810;4.790;2022-07-30T14:45:12;1.38;;;1.20;;
17461;SDS011;8848;50.810;4.790;2022-07-30T14:47:38;1.15;;;1.05;;
17461;SDS011;8848;50.810;4.790;2022-07-30T14:50:05;1.25;;;1.10;;
17461;SDS011;8848;50.810;4.790;2022-07-30T14:52:31;1.30;;;1.20;;
17461;SDS011;8848;50.810;4.790;2022-07-30T14:55:02;1.30;;;1.20;;
17461;SDS011;8848;50.810;4.790;2022-07-30T14:57:29;1.35;;;1.23;;
17461;SDS011;8848;50.810;4.790;2022-07-30T14:59:55;1.30;;;1.20;;
17461;SDS011;8848;50.810;4.790;2022-07-30T15:02:21;1.40;;;1.20;;
17461;SDS011;8848;50.810;4.790;2022-07-30T15:04:47;1.50;;;1.00;;
17461;SDS011;8848;50.810;4.790;2022-07-30T15:07:13;1.23;;;1.08;;
17461;SDS011;8848;50.810;4.790;2022-07-30T15:09:39;1.27;;;1.15;;
17461;SDS011;8848;50.810;4.790;2022-07-30T15:12:06;1.60;;;1.00;;
17461;SDS011;8848;50.810;4.790;2022-07-30T15:14:34;1.85;;;1.23;;
17461;SDS011;8848;50.810;4.790;2022-07-30T15:17:00;2.13;;;1.40;;
17461;SDS011;8848;50.810;4.790;2022-07-30T15:19:26;1.10;;;0.90;;
17461;SDS011;8848;50.810;4.790;2022-07-30T15:21:52;1.48;;;1.13;;
17461;SDS011;8848;50.810;4.790;2022-07-30T15:24:19;1.45;;;1.17;;
17461;SDS011;8848;50.810;4.790;2022-07-30T15:26:45;1.73;;;1.38;;
17461;SDS011;8848;50.810;4.790;2022-07-30T15:29:12;1.58;;;1.17;;
17461;SDS011;8848;50.810;4.790;2022-07-30T15:31:38;1.70;;;1.30;;
17461;SDS011;8848;50.810;4.790;2022-07-30T15:34:04;1.75;;;1.15;;
17461;SDS011;8848;50.810;4.790;2022-07-30T15:36:34;1.30;;;1.20;;
17461;SDS011;8848;50.810;4.790;2022-07-30T15:39:00;1.25;;;1.15;;
17461;SDS011;8848;50.810;4.790;2022-07-30T15:41:26;1.52;;;1.20;;
17461;SDS011;8848;50.810;4.790;2022-07-30T15:43:52;1.13;;;1.02;;